Estestar — 3ECR8 — position and weather

sailwx.info

Track history (hours):
 
Tides and Currents Weather Stations Pressure Air Temp Water Temp Dewpoint Dewpoint Depression Visibility Wind Speed Wind Dir Waves Ship Positions

Estestar

Last reported at 2017-Mar-17 19:26 UTC. Time now 2017-Mar-25 05:46 UTC.
Position N 35°58' W 005°38'.

Length 133 m; draft 7.4 m.

Type: Cargo ship. MMSI: 371448000.

Date/timePositionNaut miles runAvg speedWind from/ knotsBaromVisibWave heightAir tempDewpointWater temp
2017-Mar-17 19:26N 35°58' W 005°38'910.3
2017-Mar-17 18:33N 36°00' W 005°28'10 9.8
2017-Mar-17 17:33N 36°03' W 005°16'10 9.8
2017-Mar-17 16:33N 36°04' W 005°04'25410.1
2017-Mar-16 15:20N 36°49' E 000°07'  
2017-Mar-13 19:33N 36°29' E 014°03'1110.8
2017-Mar-13 18:33N 36°25' E 014°16'1110.7
2017-Mar-13 17:33N 36°22' E 014°28'1010.4
2017-Mar-13 16:33N 36°18' E 014°40'  
Track history (hours):
 
Tides and Currents Weather Stations Pressure Air Temp Water Temp Dewpoint Dewpoint Depression Visibility Wind Speed Wind Dir Waves Ship Positions

Estestar

Last reported at 2017-Mar-17 19:26 UTC. Time now 2017-Mar-25 05:46 UTC.
Position N 35°58' W 005°38'.

Length 133 m; draft 7.4 m.

Type: Cargo ship. MMSI: 371448000.

Date/timePositionNaut miles runAvg speedWind from/ knotsBaromVisibWave heightAir tempDewpointWater temp
2017-Mar-17 19:26N 35°58' W 005°38'910.3
2017-Mar-17 18:33N 36°00' W 005°28'10 9.8
2017-Mar-17 17:33N 36°03' W 005°16'10 9.8
2017-Mar-17 16:33N 36°04' W 005°04'25410.1
2017-Mar-16 15:20N 36°49' E 000°07'  
2017-Mar-13 19:33N 36°29' E 014°03'1110.8
2017-Mar-13 18:33N 36°25' E 014°16'1110.7
2017-Mar-13 17:33N 36°22' E 014°28'1010.4
2017-Mar-13 16:33N 36°18' E 014°40'  

Dump ship's entire track history